createdAt,value
2022-10-18T00:02:35.677Z,100386.91
2022-10-18T00:05:20.634Z,100381.19
2022-10-18T00:08:05.667Z,100376.16
2022-10-18T00:10:50.955Z,100378.69
2022-10-18T00:13:36.273Z,100382.16
2022-10-18T00:16:21.232Z,100383.84
2022-10-18T00:19:06.260Z,100378.47
2022-10-18T00:21:51.113Z,100373.88
2022-10-18T00:24:36.051Z,100373.28
2022-10-18T00:27:21.062Z,100365.31
2022-10-18T00:30:06.495Z,100353.22
2022-10-18T00:32:51.707Z,100377.47
2022-10-18T00:35:36.622Z,100365.34
2022-10-18T00:38:21.597Z,100361.19
2022-10-18T00:41:09.191Z,100365.09
2022-10-18T00:44:05.202Z,100364.28
2022-10-18T00:46:52.285Z,100343.69
2022-10-18T00:49:41.803Z,100343.59
2022-10-18T00:52:41.731Z,100341.78
2022-10-18T00:55:27.890Z,100340.53
2022-10-18T00:58:15.847Z,100359.47
2022-10-18T01:01:00.624Z,100353.09
2022-10-18T01:03:45.498Z,100345.59
2022-10-18T01:06:32.058Z,100346.56
2022-10-18T01:09:45.383Z,100335.84
2022-10-18T01:13:02.420Z,100337.91
2022-10-18T01:18:45.964Z,100328.69
2022-10-18T01:21:47.752Z,100329.25
2022-10-18T01:24:49.101Z,100324.66
2022-10-18T01:27:56.612Z,100325.63
2022-10-18T01:30:53.431Z,100315.97
2022-10-18T01:33:45.409Z,100305.72
2022-10-18T01:36:32.568Z,100303.34
2022-10-18T01:39:26.062Z,100286.56
2022-10-18T01:42:13.331Z,100285.31
2022-10-18T01:45:00.792Z,100285.31
2022-10-18T01:47:47.776Z,100282.94
2022-10-18T01:50:34.721Z,100282.13
2022-10-18T01:53:32.250Z,100274.63
2022-10-18T01:56:46.479Z,100282.13
2022-10-18T01:59:31.218Z,100273.47
2022-10-18T02:02:47.380Z,100270.09
2022-10-18T02:05:39.963Z,100260.03
2022-10-18T02:09:07.971Z,100250.31
2022-10-18T02:11:54.514Z,100245.53
2022-10-18T02:14:42.320Z,100236.88
2022-10-18T02:17:29.626Z,100236.34
2022-10-18T02:20:19.965Z,100232.19
2022-10-18T02:23:10.188Z,100230.41
2022-10-18T02:25:55.614Z,100224.06
2022-10-18T02:28:41.074Z,100226.19
2022-10-18T02:31:28.938Z,100216.28
2022-10-18T02:34:25.146Z,100215.69
2022-10-18T02:37:10.845Z,100218.59
2022-10-18T02:39:56.480Z,100220.72
2022-10-18T02:42:48.926Z,100207.91
2022-10-18T02:45:33.913Z,100213.41
2022-10-18T02:48:18.554Z,100213.56
2022-10-18T02:51:03.465Z,100214.28
2022-10-18T02:53:48.359Z,100215.44
2022-10-18T02:56:33.913Z,100202.19
2022-10-18T02:59:18.884Z,100209.41
2022-10-18T03:02:04.035Z,100219.41
2022-10-18T03:04:48.882Z,100216.56
2022-10-18T03:07:34.192Z,100217.31
2022-10-18T03:10:19.370Z,100213.03
2022-10-18T03:13:04.533Z,100202.72
2022-10-18T03:15:49.507Z,100204.81
2022-10-18T03:18:34.719Z,100210.28
2022-10-18T03:21:19.698Z,100207.91
2022-10-18T03:24:05.146Z,100208.25
2022-10-18T03:26:50.142Z,100216.28
2022-10-18T03:29:34.960Z,100212.50
2022-10-18T03:32:19.854Z,100205.34
2022-10-18T03:35:05.659Z,100199.56
2022-10-18T03:37:50.652Z,100197.22
2022-10-18T03:40:35.699Z,100202.47
2022-10-18T03:43:20.717Z,100196.59
2022-10-18T03:46:05.647Z,100187.50
2022-10-18T03:48:50.475Z,100185.72
2022-10-18T03:51:35.500Z,100187.66
2022-10-18T03:54:20.354Z,100177.00
2022-10-18T03:57:05.244Z,100181.91
2022-10-18T03:59:50.223Z,100174.25
2022-10-18T04:02:35.234Z,100183.69
2022-10-18T04:05:20.341Z,100176.00
2022-10-18T04:08:05.413Z,100170.44
2022-10-18T04:10:51.953Z,100164.34
2022-10-18T04:13:36.932Z,100169.78
2022-10-18T04:16:22.370Z,100168.97
2022-10-18T04:19:07.408Z,100175.09
2022-10-18T04:21:52.279Z,100169.97
2022-10-18T04:24:38.548Z,100165.66
2022-10-18T04:27:23.628Z,100165.31
2022-10-18T04:30:08.986Z,100166.75
2022-10-18T04:32:53.623Z,100162.88
2022-10-18T04:35:38.477Z,100156.59
2022-10-18T04:38:23.893Z,100170.28
2022-10-18T04:41:08.627Z,100162.25
2022-10-18T04:43:53.612Z,100155.84
2022-10-18T04:46:38.535Z,100163.94
2022-10-18T04:49:23.520Z,100157.31
2022-10-18T04:52:08.801Z,100166.06
2022-10-18T04:54:53.996Z,100154.13
2022-10-18T04:57:38.982Z,100157.41
2022-10-18T05:00:23.860Z,100158.28
2022-10-18T05:03:10.801Z,100154.84
2022-10-18T05:06:03.605Z,100149.44
2022-10-18T05:08:49.137Z,100155.69
2022-10-18T05:11:34.399Z,100148.50
2022-10-18T05:14:19.429Z,100148.47
2022-10-18T05:17:04.572Z,100148.06
2022-10-18T05:19:49.422Z,100152.56
2022-10-18T05:22:34.358Z,100153.09
2022-10-18T05:25:19.704Z,100152.47
2022-10-18T05:28:10.939Z,100150.81
2022-10-18T05:31:07.904Z,100154.72
2022-10-18T05:33:52.612Z,100145.41
2022-10-18T05:36:37.738Z,100160.31
2022-10-18T05:39:22.622Z,100147.34
2022-10-18T05:42:08.966Z,100146.22
2022-10-18T05:44:55.132Z,100144.66
2022-10-18T05:47:40.621Z,100151.41
2022-10-18T05:50:28.177Z,100147.44
2022-10-18T05:53:35.257Z,100151.00
2022-10-18T05:56:19.465Z,100151.75
2022-10-18T05:59:07.385Z,100146.97
2022-10-18T06:01:52.213Z,100145.50
2022-10-18T06:04:37.356Z,100152.00
2022-10-18T06:07:22.689Z,100151.84
2022-10-18T06:10:08.147Z,100152.56
2022-10-18T06:12:53.204Z,100155.94
2022-10-18T06:15:38.235Z,100152.97
2022-10-18T06:18:23.459Z,100158.53
2022-10-18T06:21:12.107Z,100159.72
2022-10-18T06:23:58.966Z,100160.66
2022-10-18T06:26:44.421Z,100154.31
2022-10-18T06:29:29.714Z,100154.34
2022-10-18T06:32:41.560Z,100152.97
2022-10-18T06:35:26.840Z,100156.41
2022-10-18T06:38:13.412Z,100145.44
2022-10-18T06:40:59.860Z,100149.34
2022-10-18T06:43:53.494Z,100146.63
2022-10-18T06:46:39.761Z,100155.91
2022-10-18T06:49:24.650Z,100154.00
2022-10-18T06:52:09.865Z,100165.19
2022-10-18T06:54:54.607Z,100158.88
2022-10-18T06:57:39.545Z,100164.06
2022-10-18T07:00:24.475Z,100151.63
2022-10-18T07:03:09.465Z,100147.91
2022-10-18T07:05:54.473Z,100139.91
2022-10-18T07:08:40.595Z,100139.06
2022-10-18T07:11:27.186Z,100138.97
2022-10-18T07:14:16.181Z,100131.25
2022-10-18T07:17:01.648Z,100124.31
2022-10-18T07:19:46.822Z,100128.50
2022-10-18T07:22:31.765Z,100125.63
2022-10-18T07:25:17.196Z,100130.22
2022-10-18T07:28:02.833Z,100121.19
2022-10-18T07:30:52.989Z,100124.41
2022-10-18T07:33:48.879Z,100122.88
2022-10-18T07:36:36.363Z,100131.81
2022-10-18T07:39:24.779Z,100120.25
2022-10-18T07:42:09.852Z,100115.97
2022-10-18T07:45:01.592Z,100110.22
2022-10-18T07:47:54.759Z,100106.03
2022-10-18T07:50:40.030Z,100104.00
2022-10-18T07:53:25.712Z,100106.66
2022-10-18T07:56:21.570Z,100093.69
2022-10-18T07:59:12.708Z,100100.78
2022-10-18T08:02:05.314Z,100089.56
2022-10-18T08:04:53.014Z,100074.22
2022-10-18T08:07:39.421Z,100085.50
2022-10-18T08:10:30.678Z,100081.88
2022-10-18T08:13:17.421Z,100072.75
2022-10-18T08:16:49.654Z,100075.88
2022-10-18T08:19:34.799Z,100075.13
2022-10-18T08:22:22.347Z,100074.34
2022-10-18T08:25:07.855Z,100072.00
2022-10-18T08:27:52.819Z,100063.66
2022-10-18T08:30:37.749Z,100060.25
2022-10-18T08:33:23.329Z,100063.38
2022-10-18T08:36:12.754Z,100060.72
2022-10-18T08:38:59.612Z,100050.28
2022-10-18T08:42:09.485Z,100058.00
2022-10-18T08:48:46.494Z,100031.81
2022-10-18T08:51:48.223Z,100029.13
2022-10-18T08:55:02.551Z,100025.94
2022-10-18T08:57:50.298Z,100031.19
2022-10-18T09:00:40.284Z,100020.25
2022-10-18T09:03:52.852Z,100032.84
2022-10-18T09:06:58.597Z,100029.31
2022-10-18T09:10:22.012Z,100013.59
2022-10-18T09:13:29.504Z,100015.72
2022-10-18T09:16:25.347Z,100010.75
2022-10-18T09:19:40.317Z,100006.16
2022-10-18T09:22:52.053Z,100007.66
2022-10-18T09:26:06.938Z,100006.50
2022-10-18T09:29:10.480Z,99978.03
2022-10-18T09:32:09.010Z,99996.72
2022-10-18T09:35:00.893Z,99990.19
2022-10-18T09:37:47.384Z,99983.81
2022-10-18T09:40:38.433Z,99977.09
2022-10-18T09:43:38.324Z,99979.63
2022-10-18T09:46:38.848Z,99969.53
2022-10-18T09:49:49.491Z,99961.22
2022-10-18T09:53:03.039Z,99956.22
2022-10-18T09:56:18.617Z,99960.91
2022-10-18T10:03:18.029Z,99942.09
2022-10-18T10:06:17.349Z,99931.81
2022-10-18T10:09:14.145Z,99937.78
2022-10-18T10:11:59.468Z,99927.59
2022-10-18T10:14:44.517Z,99921.88
2022-10-18T10:17:32.986Z,99913.41
2022-10-18T10:20:31.175Z,99921.88
2022-10-18T10:26:30.491Z,99915.03
2022-10-18T10:29:50.941Z,99912.47
2022-10-18T10:32:51.438Z,99903.66
2022-10-18T10:35:56.109Z,99904.25
2022-10-18T10:38:41.047Z,99891.00
2022-10-18T10:41:27.101Z,99882.06
2022-10-18T10:44:20.089Z,99883.00
2022-10-18T10:47:05.745Z,99885.06
2022-10-18T10:50:27.565Z,99880.00
2022-10-18T10:53:27.206Z,99865.75
2022-10-18T10:56:22.092Z,99870.16
2022-10-18T10:59:15.767Z,99863.44
2022-10-18T11:02:17.149Z,99868.00
2022-10-18T11:05:25.261Z,99849.22
2022-10-18T11:08:16.922Z,99856.66
2022-10-18T11:11:13.158Z,99844.31
2022-10-18T11:14:31.577Z,99842.75
2022-10-18T11:17:25.304Z,99839.44
2022-10-18T11:20:19.137Z,99836.22
2022-10-18T11:23:12.285Z,99833.06
2022-10-18T11:26:12.693Z,99827.06
2022-10-18T11:29:05.150Z,99817.28
2022-10-18T11:32:02.171Z,99823.34
2022-10-18T11:35:12.911Z,99810.28
2022-10-18T11:38:15.164Z,99808.75
2022-10-18T11:41:26.379Z,99792.94
2022-10-18T11:44:29.884Z,99794.19
2022-10-18T11:47:40.140Z,99774.50
2022-10-18T11:50:47.662Z,99776.63
2022-10-18T11:53:52.020Z,99773.66
2022-10-18T11:56:59.022Z,99779.69
2022-10-18T12:00:11.497Z,99755.78
2022-10-18T12:02:59.699Z,99759.44
2022-10-18T12:05:48.022Z,99754.03
2022-10-18T12:08:41.263Z,99751.16
2022-10-18T12:11:32.101Z,99747.50
2022-10-18T12:14:34.611Z,99733.78
2022-10-18T12:17:46.357Z,99734.66
2022-10-18T12:20:48.243Z,99729.38
2022-10-18T12:23:50.652Z,99712.53
2022-10-18T12:26:35.975Z,99715.78
2022-10-18T12:29:23.864Z,99716.88
2022-10-18T12:32:14.011Z,99702.13
2022-10-18T12:35:12.432Z,99707.53
2022-10-18T12:38:11.574Z,99709.78
2022-10-18T12:40:59.321Z,99697.41
2022-10-18T12:43:51.609Z,99696.53
2022-10-18T12:46:50.621Z,99690.78
2022-10-18T12:49:40.175Z,99681.88
2022-10-18T12:52:31.572Z,99682.59
2022-10-18T12:55:19.226Z,99685.78
2022-10-18T12:58:28.137Z,99681.22
2022-10-18T13:01:13.143Z,99677.34
2022-10-18T13:03:58.579Z,99671.75
2022-10-18T13:07:04.538Z,99676.63
2022-10-18T13:10:13.301Z,99673.22
2022-10-18T13:13:39.278Z,99671.50
2022-10-18T13:16:50.123Z,99665.03
2022-10-18T13:20:02.843Z,99665.50
2022-10-18T13:23:23.793Z,99657.94
2022-10-18T13:26:23.209Z,99655.91
2022-10-18T13:29:29.534Z,99647.09
2022-10-18T13:32:23.448Z,99637.47
2022-10-18T13:35:46.283Z,99639.63
2022-10-18T13:38:39.795Z,99629.03
2022-10-18T13:41:45.022Z,99627.19
2022-10-18T13:44:39.909Z,99626.72
2022-10-18T13:47:36.164Z,99623.31
2022-10-18T13:50:35.751Z,99615.06
2022-10-18T13:53:36.651Z,99615.97
2022-10-18T13:56:38.540Z,99613.28
2022-10-18T13:59:33.182Z,99604.88
2022-10-18T14:02:59.946Z,99602.47
2022-10-18T14:06:02.280Z,99599.78
2022-10-18T14:09:01.175Z,99601.63
2022-10-18T14:12:02.663Z,99596.75
2022-10-18T14:15:20.068Z,99595.13
2022-10-18T14:18:13.068Z,99588.16
2022-10-18T14:21:14.604Z,99587.50
2022-10-18T14:24:00.538Z,99588.50
2022-10-18T14:26:45.377Z,99585.47
2022-10-18T14:29:30.256Z,99586.63
2022-10-18T14:32:31.014Z,99581.69
2022-10-18T14:35:33.727Z,99573.56
2022-10-18T14:38:22.442Z,99573.56
2022-10-18T14:41:17.579Z,99570.03
2022-10-18T14:44:29.891Z,99571.81
2022-10-18T14:47:26.800Z,99564.34
2022-10-18T14:50:23.886Z,99560.03
2022-10-18T14:53:15.796Z,99558.38
2022-10-18T14:56:03.610Z,99558.44
2022-10-18T14:58:48.553Z,99553.31
2022-10-18T15:01:35.710Z,99545.59
2022-10-18T15:04:26.330Z,99548.00
2022-10-18T15:07:17.134Z,99545.16
2022-10-18T15:10:04.849Z,99544.91
2022-10-18T15:13:08.651Z,99539.75
2022-10-18T15:15:55.452Z,99539.28
2022-10-18T15:18:41.138Z,99536.91
2022-10-18T15:21:28.466Z,99537.94
2022-10-18T15:24:25.604Z,99536.63
2022-10-18T15:27:20.143Z,99530.59
2022-10-18T15:30:16.353Z,99529.50
2022-10-18T15:33:03.702Z,99522.44
2022-10-18T15:35:48.964Z,99521.63
2022-10-18T15:38:36.119Z,99519.75
2022-10-18T15:41:38.379Z,99520.75
2022-10-18T15:44:34.209Z,99523.25
2022-10-18T15:47:21.127Z,99511.44
2022-10-18T15:50:37.335Z,99517.63
2022-10-18T15:53:23.115Z,99508.25
2022-10-18T15:56:33.994Z,99509.72
2022-10-18T15:59:30.203Z,99494.59
2022-10-18T16:02:15.675Z,99485.22
2022-10-18T16:05:02.256Z,99486.25
2022-10-18T16:07:54.110Z,99489.09
2022-10-18T16:10:40.497Z,99485.72
2022-10-18T16:13:26.764Z,99482.09
2022-10-18T16:16:21.482Z,99472.97
2022-10-18T16:19:13.850Z,99469.59
2022-10-18T16:22:06.121Z,99470.66
2022-10-18T16:24:52.208Z,99460.72
2022-10-18T16:27:37.198Z,99452.94
2022-10-18T16:30:27.837Z,99452.19
2022-10-18T16:33:14.155Z,99450.13
2022-10-18T16:36:04.016Z,99447.03
2022-10-18T16:38:49.864Z,99448.94
2022-10-18T16:41:35.066Z,99439.53
2022-10-18T16:44:20.163Z,99439.72
2022-10-18T16:47:04.867Z,99440.97
2022-10-18T16:49:52.635Z,99439.06
2022-10-18T16:52:37.782Z,99428.63
2022-10-18T16:55:24.415Z,99429.91
2022-10-18T16:58:18.552Z,99426.19
2022-10-18T17:01:06.767Z,99438.06
2022-10-18T17:03:54.751Z,99425.72
2022-10-18T17:06:39.543Z,99433.78
2022-10-18T17:09:24.623Z,99420.19
2022-10-18T17:12:09.399Z,99418.56
2022-10-18T17:14:54.453Z,99421.06
2022-10-18T17:17:39.555Z,99418.34
2022-10-18T17:20:25.873Z,99412.84
2022-10-18T17:23:11.550Z,99410.72
2022-10-18T17:26:06.861Z,99408.34
2022-10-18T17:28:56.504Z,99404.06
2022-10-18T17:31:41.648Z,99402.22
2022-10-18T17:34:26.309Z,99409.75
2022-10-18T17:37:11.173Z,99400.91
2022-10-18T17:39:56.243Z,99400.09
2022-10-18T17:42:41.150Z,99402.94
2022-10-18T17:45:26.573Z,99393.59
2022-10-18T17:48:11.447Z,99387.88
2022-10-18T17:50:56.513Z,99383.38
2022-10-18T17:53:41.499Z,99386.69
2022-10-18T17:56:30.530Z,99383.19
2022-10-18T17:59:15.272Z,99386.53
2022-10-18T18:02:00.431Z,99377.63
2022-10-18T18:04:45.372Z,99380.91
2022-10-18T18:07:30.619Z,99367.44
2022-10-18T18:10:15.660Z,99363.22
2022-10-18T18:13:01.428Z,99366.84
2022-10-18T18:15:45.911Z,99366.06
2022-10-18T18:18:31.024Z,99360.81
2022-10-18T18:21:16.552Z,99362.09
2022-10-18T18:24:01.945Z,99358.63
2022-10-18T18:26:46.642Z,99349.94
2022-10-18T18:29:31.698Z,99349.63
2022-10-18T18:32:16.649Z,99338.69
2022-10-18T18:35:01.524Z,99333.28
2022-10-18T18:37:50.477Z,99334.75
2022-10-18T18:40:35.365Z,99334.22
2022-10-18T18:43:23.683Z,99322.31
2022-10-18T18:46:09.584Z,99326.41
2022-10-18T18:48:57.143Z,99325.34
2022-10-18T18:51:42.070Z,99318.56
2022-10-18T18:54:29.023Z,99321.44
2022-10-18T18:57:14.057Z,99324.34
2022-10-18T18:59:58.966Z,99312.50
2022-10-18T19:02:44.092Z,99314.31
2022-10-18T19:05:29.069Z,99308.03
2022-10-18T19:08:13.988Z,99312.50
2022-10-18T19:10:59.195Z,99296.75
2022-10-18T19:13:44.821Z,99293.84
2022-10-18T19:16:35.348Z,99301.53
2022-10-18T19:19:23.236Z,99304.13
2022-10-18T19:22:09.664Z,99289.03
2022-10-18T19:24:54.591Z,99297.09
2022-10-18T19:27:39.132Z,99289.22
2022-10-18T19:30:24.201Z,99289.06
2022-10-18T19:33:10.361Z,99280.22
2022-10-18T19:35:55.332Z,99277.09
2022-10-18T19:38:40.252Z,99278.09
2022-10-18T19:44:16.845Z,99280.94
2022-10-18T19:47:03.592Z,99267.16
2022-10-18T19:49:48.691Z,99260.88
2022-10-18T19:52:33.716Z,99262.13
2022-10-18T19:55:19.124Z,99257.06
2022-10-18T19:58:04.096Z,99262.38
2022-10-18T20:00:53.884Z,99254.03
2022-10-18T20:03:38.772Z,99254.41
2022-10-18T20:06:23.838Z,99244.25
2022-10-18T20:09:13.475Z,99237.97
2022-10-18T20:12:01.380Z,99237.09
2022-10-18T20:14:46.293Z,99248.16
2022-10-18T20:17:32.082Z,99245.91
2022-10-18T20:20:16.839Z,99228.78
2022-10-18T20:23:01.754Z,99230.72
2022-10-18T20:26:00.035Z,99230.09
2022-10-18T20:28:45.988Z,99223.44
2022-10-18T20:31:35.015Z,99217.84
2022-10-18T20:34:25.066Z,99217.22
2022-10-18T20:37:10.120Z,99205.69
2022-10-18T20:39:55.189Z,99201.69
2022-10-18T20:42:40.504Z,99198.47
2022-10-18T20:45:25.557Z,99195.00
2022-10-18T20:48:10.617Z,99194.13
2022-10-18T20:50:55.402Z,99197.06
2022-10-18T20:53:40.688Z,99191.59
2022-10-18T20:56:30.894Z,99174.22
2022-10-18T20:59:16.501Z,99172.66
2022-10-18T21:02:01.211Z,99172.88
2022-10-18T21:04:46.137Z,99165.59
2022-10-18T21:07:31.324Z,99166.41
2022-10-18T21:10:16.686Z,99152.72
2022-10-18T21:13:01.599Z,99156.09
2022-10-18T21:15:54.325Z,99149.34
2022-10-18T21:18:39.862Z,99145.44
2022-10-18T21:21:24.895Z,99136.91
2022-10-18T21:24:11.380Z,99134.13
2022-10-18T21:26:56.705Z,99132.44
2022-10-18T21:29:41.414Z,99126.81
2022-10-18T21:32:26.551Z,99125.66
2022-10-18T21:35:11.507Z,99118.16
2022-10-18T21:37:56.392Z,99110.75
2022-10-18T21:40:44.020Z,99115.91
2022-10-18T21:43:28.700Z,99106.59
2022-10-18T21:46:16.303Z,99099.19
2022-10-18T21:49:01.141Z,99085.75
2022-10-18T21:51:46.156Z,99083.16
2022-10-18T21:54:31.073Z,99080.84
2022-10-18T21:57:15.869Z,99090.16
2022-10-18T22:00:01.225Z,99091.56
2022-10-18T22:02:45.812Z,99084.38
2022-10-18T22:05:31.084Z,99083.59
2022-10-18T22:08:15.770Z,99078.41
2022-10-18T22:11:01.278Z,99076.47
2022-10-18T22:13:46.321Z,99073.88
2022-10-18T22:16:31.499Z,99078.13
2022-10-18T22:19:16.334Z,99061.94
2022-10-18T22:22:01.312Z,99057.34
2022-10-18T22:24:47.683Z,99051.84
2022-10-18T22:27:32.771Z,99050.28
2022-10-18T22:30:17.864Z,99042.94
2022-10-18T22:33:02.963Z,99039.28
2022-10-18T22:35:51.060Z,99031.66
2022-10-18T22:38:37.163Z,99037.78
2022-10-18T22:41:21.893Z,99035.59
2022-10-18T22:44:07.813Z,99026.66
2022-10-18T22:46:53.089Z,99022.28
2022-10-18T22:49:37.970Z,99025.56
2022-10-18T22:52:23.229Z,99019.56
2022-10-18T22:55:08.248Z,99017.44
2022-10-18T22:57:54.973Z,99008.63
2022-10-18T23:00:39.808Z,99015.47
2022-10-18T23:03:24.721Z,99007.66
2022-10-18T23:06:24.919Z,98999.59
2022-10-18T23:09:10.895Z,98991.53
2022-10-18T23:11:56.229Z,98996.16
2022-10-18T23:14:41.126Z,98988.66
2022-10-18T23:17:25.923Z,98986.97
2022-10-18T23:20:10.859Z,98983.13
2022-10-18T23:22:55.867Z,98979.41
2022-10-18T23:25:40.785Z,98974.84
2022-10-18T23:28:25.778Z,98976.81
2022-10-18T23:31:14.064Z,98970.25
2022-10-18T23:34:01.862Z,98970.34
2022-10-18T23:36:46.913Z,98964.41
2022-10-18T23:39:31.931Z,98965.50
2022-10-18T23:42:16.926Z,98973.78
2022-10-18T23:45:02.076Z,98963.94
2022-10-18T23:47:47.040Z,98960.72
2022-10-18T23:50:31.815Z,98973.59
2022-10-18T23:53:19.109Z,98966.38
2022-10-18T23:56:09.360Z,98961.28
2022-10-18T23:58:56.008Z,98964.72
